Time;durP1;ratioP1;P1;durP2;ratioP2;P2;SDS_P1;SDS_P2;PMS_P1;PMS_P2;Temp;Humidity;BMP_temperature;BMP_pressure;BME280_temperature;BME280_humidity;BME280_pressure;Samples;Min_cycle;Max_cycle;Signal;HPM_P1;HPM_P2
2023/02/21 02:14:09;;;;;;;27.25;20.38;;;6.50;99.90;;;;;;4962154;28;20252;-72
2023/02/21 02:16:42;;;;;;;28.38;22.73;;;6.40;99.90;;;;;;4969424;28;20216;-72
2023/02/21 02:19:42;;;;;;;25.65;20.25;;;6.30;99.90;;;;;;4970105;28;20316;-71
2023/02/21 02:22:48;;;;;;;27.13;21.13;;;6.30;99.90;;;;;;4967992;28;20244;-71
2023/02/21 02:25:30;;;;;;;28.30;21.48;;;6.30;99.90;;;;;;4960645;28;20870;-72
2023/02/21 02:28:16;;;;;;;23.92;19.33;;;6.30;99.90;;;;;;4971835;28;20229;-72
2023/02/21 02:31:22;;;;;;;23.63;18.83;;;6.30;99.90;;;;;;4969424;28;20229;-72
2023/02/21 02:34:34;;;;;;;26.27;20.13;;;6.30;99.90;;;;;;4956361;28;20216;-71
2023/02/21 02:37:10;;;;;;;25.52;19.23;;;6.20;99.90;;;;;;4948126;28;20200;-71
2023/02/21 02:39:47;;;;;;;27.23;19.42;;;6.20;99.90;;;;;;4974164;28;20304;-72
2023/02/21 02:42:24;;;;;;;26.90;21.02;;;6.20;99.90;;;;;;4968496;28;20285;-71
2023/02/21 02:44:53;;;;;;;25.80;20.05;;;6.10;99.90;;;;;;4971542;28;20655;-71
2023/02/21 02:47:27;;;;;;;22.02;18.65;;;6.20;99.90;;;;;;4970759;28;20233;-70
2023/02/21 02:49:55;;;;;;;23.70;19.23;;;6.20;99.90;;;;;;4971710;28;20312;-71
2023/02/21 02:52:24;;;;;;;27.65;20.55;;;6.20;99.90;;;;;;4971527;28;20281;-72
2023/02/21 02:54:59;;;;;;;24.98;19.55;;;6.30;99.90;;;;;;4970401;28;20255;-71
2023/02/21 02:57:28;;;;;;;26.63;19.70;;;6.30;99.90;;;;;;4968751;28;20229;-70
2023/02/21 02:59:55;;;;;;;26.67;19.55;;;6.20;99.90;;;;;;4966721;28;20602;-72
2023/02/21 03:02:42;;;;;;;26.48;20.45;;;6.10;99.90;;;;;;4974767;28;20202;-71
2023/02/21 03:05:22;;;;;;;25.42;20.27;;;6.00;99.90;;;;;;4967722;28;20276;-71
2023/02/21 03:08:00;;;;;;;24.67;20.58;;;6.00;99.90;;;;;;4971501;28;20227;-71
2023/02/21 03:10:38;;;;;;;26.08;19.83;;;6.00;99.90;;;;;;4968412;28;20221;-72
2023/02/21 03:13:11;;;;;;;29.58;20.55;;;5.90;99.90;;;;;;4965657;28;20205;-70
2023/02/21 03:15:46;;;;;;;27.60;21.38;;;5.90;99.90;;;;;;4971091;28;20655;-71
2023/02/21 03:18:19;;;;;;;25.45;19.50;;;5.90;99.90;;;;;;4970643;28;20762;-71
2023/02/21 03:20:50;;;;;;;24.00;18.70;;;5.80;99.90;;;;;;4969957;28;20945;-70
2023/02/21 03:23:21;;;;;;;24.63;19.65;;;5.80;99.90;;;;;;4971429;28;20312;-74
2023/02/21 03:25:50;;;;;;;24.80;18.63;;;5.80;99.90;;;;;;4973027;28;20272;-71
2023/02/21 03:28:19;;;;;;;21.02;18.10;;;5.80;99.90;;;;;;4970976;28;20260;-71
2023/02/21 03:30:48;;;;;;;24.38;17.65;;;5.80;99.90;;;;;;4969004;28;21495;-72
2023/02/21 03:33:17;;;;;;;24.92;19.23;;;5.70;99.90;;;;;;4971262;28;20224;-72
2023/02/21 03:35:44;;;;;;;23.90;19.48;;;5.70;99.90;;;;;;4969601;28;20286;-70
2023/02/21 03:38:11;;;;;;;24.05;18.15;;;5.70;99.90;;;;;;4968211;28;20306;-70
2023/02/21 03:40:39;;;;;;;22.63;18.95;;;5.70;99.90;;;;;;4973024;28;20205;-70
2023/02/21 03:43:07;;;;;;;22.52;18.50;;;5.70;99.90;;;;;;4969096;28;20204;-72
2023/02/21 03:45:34;;;;;;;20.20;17.27;;;5.70;99.90;;;;;;4967432;28;20206;-72
2023/02/21 03:48:01;;;;;;;21.40;16.48;;;5.70;99.90;;;;;;4964671;28;20340;-71
2023/02/21 03:50:28;;;;;;;23.33;18.10;;;5.70;99.90;;;;;;4970102;28;20229;-73
2023/02/21 03:52:55;;;;;;;22.48;16.77;;;5.60;99.90;;;;;;4969279;28;20896;-74
2023/02/21 03:55:22;;;;;;;25.50;19.90;;;5.60;99.90;;;;;;4973766;28;20240;-72
2023/02/21 03:57:51;;;;;;;19.80;16.80;;;5.60;99.90;;;;;;4967708;28;20260;-72
2023/02/21 04:00:18;;;;;;;23.50;17.38;;;5.60;99.90;;;;;;4965467;28;20272;-71
2023/02/21 04:02:45;;;;;;;21.38;17.58;;;5.70;99.90;;;;;;4970705;28;20202;-71
2023/02/21 04:05:13;;;;;;;22.00;17.55;;;5.70;99.90;;;;;;4971359;28;20245;-71
2023/02/21 04:07:41;;;;;;;19.80;15.98;;;5.70;99.90;;;;;;4969311;28;20233;-72
2023/02/21 04:10:08;;;;;;;18.33;14.95;;;5.60;99.90;;;;;;4971839;28;20246;-70
2023/02/21 04:12:35;;;;;;;22.17;16.50;;;5.60;99.90;;;;;;4974107;28;20710;-70
2023/02/21 04:15:04;;;;;;;22.23;16.90;;;5.60;99.90;;;;;;4950977;28;20228;-72
2023/02/21 04:17:31;;;;;;;20.85;16.63;;;5.50;99.90;;;;;;4973441;28;20904;-71
2023/02/21 04:19:58;;;;;;;22.15;17.42;;;5.60;99.90;;;;;;4974999;28;20710;-71
2023/02/21 04:22:27;;;;;;;20.23;15.50;;;5.50;99.90;;;;;;4973831;28;20242;-71
2023/02/21 04:24:54;;;;;;;21.23;16.73;;;5.50;99.90;;;;;;4973711;28;20217;-73
2023/02/21 04:27:21;;;;;;;19.80;16.45;;;5.50;99.90;;;;;;4972369;28;20229;-71
2023/02/21 04:29:48;;;;;;;22.90;17.50;;;5.50;99.90;;;;;;4977773;28;20264;-73
2023/02/21 04:32:17;;;;;;;21.00;16.20;;;5.40;99.90;;;;;;4977132;28;20312;-72
2023/02/21 04:34:45;;;;;;;18.08;14.90;;;5.40;99.90;;;;;;4974617;28;20761;-72
2023/02/21 04:37:14;;;;;;;18.58;15.30;;;5.30;99.90;;;;;;4972706;28;20225;-72
2023/02/21 04:39:42;;;;;;;18.25;15.15;;;5.20;99.90;;;;;;4970353;28;20245;-71
2023/02/21 04:42:09;;;;;;;24.35;18.70;;;5.10;99.90;;;;;;4970519;28;20197;-71
2023/02/21 04:44:38;;;;;;;20.15;16.75;;;5.10;99.90;;;;;;4972669;28;20217;-71
2023/02/21 04:47:05;;;;;;;20.55;16.85;;;5.10;99.90;;;;;;4973695;28;20234;-72
2023/02/21 04:49:34;;;;;;;19.05;15.38;;;5.10;99.90;;;;;;4969621;28;20222;-70
2023/02/21 04:52:01;;;;;;;21.95;15.93;;;5.10;99.90;;;;;;4970812;28;20308;-70
2023/02/21 04:54:27;;;;;;;19.90;16.13;;;5.00;99.90;;;;;;4969000;28;20305;-71
2023/02/21 04:56:54;;;;;;;19.90;14.38;;;5.10;99.90;;;;;;4969998;28;20619;-71
2023/02/21 04:59:22;;;;;;;18.63;14.35;;;5.10;99.90;;;;;;4969838;28;20324;-71
2023/02/21 05:01:49;;;;;;;19.02;15.50;;;5.10;99.90;;;;;;4972803;28;20289;-70
2023/02/21 05:04:16;;;;;;;16.35;14.57;;;5.10;99.90;;;;;;4975210;28;20300;-71
2023/02/21 05:06:44;;;;;;;16.60;13.52;;;5.10;99.90;;;;;;4968486;28;20646;-72
2023/02/21 05:09:11;;;;;;;18.35;14.45;;;5.10;99.90;;;;;;4968720;28;20647;-71
2023/02/21 05:11:39;;;;;;;17.00;13.52;;;5.10;99.90;;;;;;4972841;28;20300;-71
2023/02/21 05:14:05;;;;;;;17.67;15.20;;;5.10;99.90;;;;;;4973283;28;20225;-71
2023/02/21 05:16:33;;;;;;;19.90;15.63;;;5.00;99.90;;;;;;4973024;28;20309;-69
2023/02/21 05:19:01;;;;;;;18.80;14.90;;;5.00;99.90;;;;;;4979161;28;20311;-71
2023/02/21 05:21:28;;;;;;;16.75;14.02;;;5.00;99.90;;;;;;4994903;28;20203;-70
2023/02/21 05:23:57;;;;;;;19.52;14.40;;;5.00;99.90;;;;;;4982540;28;20259;-70
2023/02/21 05:26:26;;;;;;;15.68;13.75;;;5.00;99.90;;;;;;4973604;28;20268;-72
2023/02/21 05:28:53;;;;;;;18.77;13.95;;;4.90;99.90;;;;;;4973146;28;20269;-71
2023/02/21 05:31:20;;;;;;;14.77;13.02;;;4.90;99.90;;;;;;4971222;28;20712;-71
2023/02/21 05:33:47;;;;;;;15.00;13.07;;;4.90;99.90;;;;;;4968686;28;20242;-70
2023/02/21 05:36:16;;;;;;;17.42;13.93;;;4.90;99.90;;;;;;4971417;28;20632;-70
2023/02/21 05:38:48;;;;;;;18.27;14.82;;;4.90;99.90;;;;;;4972539;28;20233;-69
2023/02/21 05:41:17;;;;;;;16.35;13.85;;;4.90;99.90;;;;;;4971303;28;20580;-71
2023/02/21 05:43:44;;;;;;;16.35;14.25;;;4.90;99.90;;;;;;4971775;28;20277;-70
2023/02/21 05:46:20;;;;;;;18.88;14.60;;;4.90;99.90;;;;;;4973025;28;20193;-71
2023/02/21 05:48:47;;;;;;;19.48;15.25;;;4.90;99.90;;;;;;4972144;28;20288;-70
2023/02/21 05:51:14;;;;;;;18.23;14.65;;;4.90;99.90;;;;;;4974776;28;20284;-71
2023/02/21 05:53:42;;;;;;;17.83;13.50;;;4.90;99.90;;;;;;4970468;28;20256;-71
2023/02/21 05:56:09;;;;;;;17.00;14.43;;;4.80;99.90;;;;;;4972091;28;20308;-71
2023/02/21 05:58:38;;;;;;;17.85;14.80;;;4.80;99.90;;;;;;4969916;28;20244;-71
2023/02/21 06:01:05;;;;;;;19.95;15.77;;;4.70;99.90;;;;;;4974530;28;20285;-71
2023/02/21 06:03:33;;;;;;;18.85;16.38;;;4.70;99.90;;;;;;4971565;28;20260;-70
2023/02/21 06:06:01;;;;;;;17.95;15.57;;;4.70;99.90;;;;;;4950129;28;20284;-71
2023/02/21 06:08:28;;;;;;;16.85;13.48;;;4.60;99.90;;;;;;4978438;28;20335;-71
2023/02/21 06:10:55;;;;;;;19.05;14.43;;;4.70;99.90;;;;;;4993186;28;20853;-70
2023/02/21 06:13:22;;;;;;;15.38;13.77;;;4.60;99.90;;;;;;4989978;28;20467;-71
2023/02/21 06:15:50;;;;;;;17.45;14.55;;;4.60;99.90;;;;;;4994712;28;20205;-71
2023/02/21 06:18:18;;;;;;;20.48;16.20;;;4.60;99.90;;;;;;4994299;28;20231;-69
2023/02/21 06:20:45;;;;;;;16.65;14.50;;;4.60;99.90;;;;;;4997634;28;20393;-71
2023/02/21 06:23:12;;;;;;;17.50;14.32;;;4.60;99.90;;;;;;4989246;28;20308;-70
2023/02/21 06:25:39;;;;;;;16.17;14.10;;;4.60;99.90;;;;;;4991066;28;20306;-71
2023/02/21 06:28:07;;;;;;;16.98;14.75;;;4.50;99.90;;;;;;4993384;28;20304;-72
2023/02/21 06:30:34;;;;;;;17.40;12.98;;;4.50;99.90;;;;;;4996707;28;20580;-69
2023/02/21 06:33:03;;;;;;;15.13;13.32;;;4.50;99.90;;;;;;4993159;28;20223;-71
2023/02/21 06:35:30;;;;;;;13.52;12.13;;;4.60;99.90;;;;;;4992216;28;20243;-70
2023/02/21 06:37:57;;;;;;;15.23;12.85;;;4.60;99.90;;;;;;4996599;28;20236;-70
2023/02/21 06:40:24;;;;;;;15.18;12.82;;;4.60;99.90;;;;;;4986874;28;20229;-71
2023/02/21 06:42:51;;;;;;;16.10;13.25;;;4.70;99.90;;;;;;4997310;28;20360;-71
2023/02/21 06:45:18;;;;;;;14.27;12.75;;;4.70;99.90;;;;;;4989268;28;20317;-71
2023/02/21 06:47:45;;;;;;;16.55;13.88;;;4.70;99.90;;;;;;4988055;28;20288;-70
2023/02/21 06:50:13;;;;;;;15.38;12.90;;;4.70;99.90;;;;;;4993328;28;20252;-73
2023/02/21 06:52:40;;;;;;;15.50;12.73;;;4.60;99.90;;;;;;4998797;28;20308;-69
2023/02/21 06:55:08;;;;;;;15.10;12.48;;;4.60;99.90;;;;;;4989617;28;20240;-69
2023/02/21 06:57:35;;;;;;;13.85;12.32;;;4.70;99.90;;;;;;4989542;28;20288;-71
2023/02/21 07:00:02;;;;;;;14.57;12.60;;;4.70;99.90;;;;;;4971388;28;20312;-69
2023/02/21 07:02:29;;;;;;;15.40;13.32;;;4.70;99.90;;;;;;4970676;28;20221;-69
2023/02/21 07:04:56;;;;;;;16.60;13.70;;;4.80;99.90;;;;;;4966732;28;20316;-70
2023/02/21 07:07:25;;;;;;;17.95;13.52;;;4.80;99.90;;;;;;4969505;28;20284;-71
2023/02/21 07:09:53;;;;;;;16.75;13.80;;;4.80;99.90;;;;;;4968394;28;20261;-71
2023/02/21 07:12:20;;;;;;;18.50;14.30;;;4.80;99.90;;;;;;4970411;28;20758;-71
2023/02/21 07:14:47;;;;;;;16.35;13.60;;;4.80;99.90;;;;;;4968024;28;20264;-71
2023/02/21 07:17:14;;;;;;;17.50;13.93;;;4.80;99.90;;;;;;4971296;28;20233;-71
2023/02/21 07:19:42;;;;;;;14.18;12.68;;;4.80;99.90;;;;;;4967777;28;20316;-71
2023/02/21 07:22:09;;;;;;;13.88;12.30;;;4.80;99.90;;;;;;4968414;28;20189;-71
2023/02/21 07:24:38;;;;;;;15.25;12.98;;;4.90;99.90;;;;;;4970490;28;20308;-71
2023/02/21 07:27:04;;;;;;;15.90;13.75;;;5.10;99.90;;;;;;4971133;28;20221;-69
2023/02/21 07:29:32;;;;;;;18.63;15.75;;;5.90;99.90;;;;;;4967436;28;20225;-71
2023/02/21 07:31:58;;;;;;;18.50;15.10;;;6.80;99.90;;;;;;4971490;28;20229;-70
2023/02/21 07:34:25;;;;;;;17.73;15.63;;;7.80;99.90;;;;;;4971630;28;20233;-71
2023/02/21 07:36:52;;;;;;;19.67;15.88;;;8.70;99.90;;;;;;4971951;28;20202;-71
2023/02/21 07:39:20;;;;;;;21.92;18.77;;;9.40;99.90;;;;;;4968255;28;20272;-70
2023/02/21 07:41:48;;;;;;;24.70;20.15;;;10.10;99.90;;;;;;4965512;28;20229;-69
2023/02/21 07:44:15;;;;;;;22.45;18.70;;;10.60;99.90;;;;;;4965250;28;20901;-69
2023/02/21 07:46:45;;;;;;;19.45;17.35;;;10.90;99.90;;;;;;4968547;28;20292;-71
2023/02/21 07:49:12;;;;;;;20.20;16.25;;;11.10;99.90;;;;;;4968633;28;20229;-71
2023/02/21 07:51:39;;;;;;;18.45;16.50;;;11.40;99.90;;;;;;4970187;28;20284;-71
2023/02/21 07:54:06;;;;;;;22.13;16.10;;;11.80;99.90;;;;;;4965439;28;20229;-70
2023/02/21 07:56:34;;;;;;;19.70;15.60;;;12.00;99.90;;;;;;4973013;28;20305;-70
2023/02/21 07:59:02;;;;;;;16.25;13.82;;;12.20;99.90;;;;;;4969859;28;20401;-70
2023/02/21 08:01:29;;;;;;;15.70;14.00;;;12.50;99.90;;;;;;4970941;28;20236;-69
2023/02/21 08:03:56;;;;;;;17.90;14.10;;;12.60;99.90;;;;;;4971584;28;20249;-70
2023/02/21 08:06:23;;;;;;;16.83;13.57;;;12.70;99.90;;;;;;4969150;28;20229;-71
2023/02/21 08:08:50;;;;;;;22.33;13.23;;;13.00;99.90;;;;;;4968128;28;20276;-70
2023/02/21 08:11:17;;;;;;;13.48;12.07;;;13.30;99.90;;;;;;4968043;28;20229;-70
2023/02/21 08:13:44;;;;;;;14.35;12.82;;;13.70;99.90;;;;;;4967248;28;20312;-70
2023/02/21 08:16:12;;;;;;;12.90;11.60;;;13.90;99.90;;;;;;4966751;28;20311;-70
2023/02/21 08:18:39;;;;;;;18.58;13.32;;;14.20;99.90;;;;;;4970563;28;20317;-70
2023/02/21 08:21:09;;;;;;;15.73;13.20;;;14.50;99.90;;;;;;4969605;28;20308;-70
2023/02/21 08:23:36;;;;;;;16.00;13.90;;;14.70;99.90;;;;;;4965759;28;20318;-70
2023/02/21 08:26:05;;;;;;;16.00;13.57;;;15.00;99.90;;;;;;4971702;28;20284;-71
2023/02/21 08:28:32;;;;;;;16.85;14.45;;;15.10;99.90;;;;;;4975629;28;20307;-72
2023/02/21 08:30:59;;;;;;;19.33;14.38;;;15.20;99.90;;;;;;4988098;28;20288;-70
2023/02/21 08:33:27;;;;;;;16.90;15.10;;;15.30;99.90;;;;;;4987095;28;20666;-71
2023/02/21 08:35:55;;;;;;;18.50;15.73;;;15.40;99.90;;;;;;4970237;28;20637;-72
2023/02/21 08:38:22;;;;;;;18.70;15.93;;;15.30;99.90;;;;;;4968493;28;20308;-69
2023/02/21 08:40:50;;;;;;;17.60;14.23;;;15.40;99.90;;;;;;4970081;28;20397;-69
2023/02/21 08:43:17;;;;;;;18.52;15.07;;;15.40;99.90;;;;;;4965676;28;20227;-70
2023/02/21 08:45:44;;;;;;;14.75;13.18;;;15.50;99.90;;;;;;4968374;28;20207;-69
2023/02/21 08:48:12;;;;;;;15.15;13.48;;;15.60;99.90;;;;;;4968108;28;20829;-69
2023/02/21 08:50:41;;;;;;;15.13;12.25;;;15.70;99.90;;;;;;4964346;28;20276;-69
2023/02/21 08:53:08;;;;;;;14.18;12.77;;;15.80;99.90;;;;;;4966924;28;20320;-69
2023/02/21 08:55:35;;;;;;;13.80;11.32;;;15.70;99.90;;;;;;4968603;28;20194;-69
2023/02/21 08:58:02;;;;;;;13.38;10.68;;;15.80;99.90;;;;;;4967413;28;20222;-69
2023/02/21 09:00:29;;;;;;;12.55;11.02;;;16.10;99.90;;;;;;4968850;28;20244;-69
2023/02/21 09:02:59;;;;;;;11.85;10.52;;;16.20;99.90;;;;;;4967532;28;20197;-69
2023/02/21 09:05:28;;;;;;;12.85;11.45;;;16.30;99.90;;;;;;4965696;28;20200;-70
2023/02/21 09:08:00;;;;;;;13.95;12.50;;;16.20;99.90;;;;;;4965823;28;20233;-71
2023/02/21 09:10:28;;;;;;;17.13;13.48;;;16.00;99.90;;;;;;4964839;28;20205;-71
2023/02/21 09:12:57;;;;;;;15.00;13.15;;;16.00;99.90;;;;;;4970316;28;20245;-72
2023/02/21 09:15:25;;;;;;;18.77;13.25;;;15.70;99.90;;;;;;4968897;28;20224;-71
2023/02/21 09:17:54;;;;;;;15.38;13.30;;;15.40;99.90;;;;;;4970958;28;20204;-71
2023/02/21 09:20:22;;;;;;;14.60;13.10;;;15.30;99.90;;;;;;4970551;28;20212;-71
2023/02/21 09:22:51;;;;;;;16.23;13.65;;;15.40;99.90;;;;;;4967399;28;20293;-74
2023/02/21 09:25:23;;;;;;;13.93;12.43;;;15.40;99.90;;;;;;4969996;28;20688;-70
2023/02/21 09:27:51;;;;;;;17.25;12.85;;;15.40;99.90;;;;;;4969689;28;20762;-71
2023/02/21 09:30:22;;;;;;;13.75;12.35;;;15.40;99.90;;;;;;4967025;28;20280;-70
2023/02/21 09:32:50;;;;;;;15.13;13.15;;;15.30;99.90;;;;;;4965870;28;20525;-70
2023/02/21 09:35:17;;;;;;;14.73;13.02;;;15.40;99.90;;;;;;4969046;28;20309;-70
2023/02/21 09:37:57;;;;;;;13.07;11.38;;;15.50;99.90;;;;;;4968907;28;20273;-69
2023/02/21 09:40:35;;;;;;;12.50;11.20;;;15.80;99.90;;;;;;4965400;28;20229;-69
2023/02/21 09:43:04;;;;;;;12.07;10.30;;;15.70;99.90;;;;;;4961514;28;20236;-70
2023/02/21 09:45:34;;;;;;;10.82;9.65;;;15.30;99.90;;;;;;4967511;28;20225;-69
2023/02/21 09:48:06;;;;;;;12.90;10.65;;;15.20;99.90;;;;;;4968158;28;20245;-69
2023/02/21 09:50:40;;;;;;;11.55;10.35;;;15.20;99.90;;;;;;4967369;28;20229;-69
2023/02/21 09:53:08;;;;;;;12.68;9.13;;;15.10;99.90;;;;;;4964472;28;20305;-71
2023/02/21 09:55:39;;;;;;;9.35;7.63;;;15.00;99.90;;;;;;4967825;28;20202;-70
2023/02/21 09:58:12;;;;;;;9.48;7.95;;;15.20;99.90;;;;;;4973514;28;20249;-70
2023/02/21 10:00:39;;;;;;;10.55;9.50;;;15.40;99.90;;;;;;4973023;28;20718;-70
2023/02/21 10:03:23;;;;;;;9.88;8.73;;;15.60;99.90;;;;;;4965500;28;20190;-71
2023/02/21 10:05:59;;;;;;;10.35;9.20;;;15.70;99.90;;;;;;4969222;28;20240;-70
2023/02/21 10:08:36;;;;;;;11.05;9.85;;;15.90;99.90;;;;;;4969536;28;20682;-70
2023/02/21 10:11:17;;;;;;;11.35;8.93;;;16.00;99.90;;;;;;4971178;28;20574;-70
2023/02/21 10:13:56;;;;;;;9.75;8.75;;;16.10;99.90;;;;;;4974083;28;20737;-70
2023/02/21 10:16:28;;;;;;;12.60;9.07;;;15.90;99.90;;;;;;4969802;28;20627;-70
2023/02/21 10:19:03;;;;;;;11.55;9.07;;;15.80;99.90;;;;;;4967740;28;20360;-70
2023/02/21 10:21:34;;;;;;;10.43;8.82;;;15.90;99.90;;;;;;4964302;28;20204;-70
2023/02/21 10:24:09;;;;;;;9.75;8.75;;;15.90;99.90;;;;;;4964980;28;20264;-70
2023/02/21 10:26:42;;;;;;;10.30;8.88;;;16.00;99.90;;;;;;4981680;28;20194;-70
2023/02/21 10:29:20;;;;;;;9.45;7.78;;;16.20;99.90;;;;;;4963247;28;20625;-70
2023/02/21 10:31:48;;;;;;;9.65;7.82;;;16.30;99.90;;;;;;4967213;28;21276;-70
2023/02/21 10:34:22;;;;;;;8.93;8.02;;;16.00;99.90;;;;;;4966857;28;20320;-70
2023/02/21 10:36:50;;;;;;;11.27;8.73;;;15.90;99.90;;;;;;4964117;28;20216;-70
2023/02/21 10:39:21;;;;;;;9.18;8.27;;;15.70;99.90;;;;;;4967716;28;20308;-70
2023/02/21 10:41:51;;;;;;;8.90;7.85;;;15.70;99.90;;;;;;4970070;28;20204;-70
2023/02/21 10:44:23;;;;;;;8.95;8.05;;;15.80;99.90;;;;;;4962854;28;20312;-69
2023/02/21 10:46:58;;;;;;;10.35;7.65;;;15.80;99.90;;;;;;4968518;28;20216;-70
2023/02/21 10:49:29;;;;;;;10.98;7.75;;;15.90;99.90;;;;;;4968067;28;20316;-70
2023/02/21 10:52:10;;;;;;;10.73;8.10;;;15.60;99.90;;;;;;4968378;28;20820;-70
2023/02/21 10:54:37;;;;;;;10.60;8.25;;;15.30;99.90;;;;;;4964650;28;20217;-70
2023/02/21 10:57:08;;;;;;;10.55;8.30;;;15.00;99.90;;;;;;4950680;28;20210;-69
2023/02/21 10:59:39;;;;;;;8.45;7.63;;;14.50;99.90;;;;;;4967313;28;20252;-70
2023/02/21 11:02:28;;;;;;;8.45;7.40;;;14.50;99.90;;;;;;4965003;28;20608;-70
2023/02/21 11:04:56;;;;;;;9.65;8.20;;;15.10;99.90;;;;;;4965685;28;20312;-70
2023/02/21 11:07:24;;;;;;;8.65;7.72;;;15.50;99.90;;;;;;4966993;28;20244;-69
2023/02/21 11:09:51;;;;;;;8.68;7.47;;;15.70;99.90;;;;;;4962517;28;20619;-69
2023/02/21 11:12:23;;;;;;;8.57;7.47;;;15.70;99.90;;;;;;4966684;28;20225;-70
2023/02/21 11:15:16;;;;;;;13.20;9.38;;;15.80;99.90;;;;;;4968347;28;20290;-70
2023/02/21 11:17:45;;;;;;;10.18;9.13;;;15.60;99.90;;;;;;4965512;28;20595;-70
2023/02/21 11:20:19;;;;;;;12.32;10.20;;;15.40;99.90;;;;;;4968225;28;20311;-70
2023/02/21 11:22:48;;;;;;;11.88;10.27;;;15.30;99.90;;;;;;4974133;28;20447;-70
2023/02/21 11:25:22;;;;;;;13.90;11.13;;;15.40;99.90;;;;;;4971817;28;20319;-70
2023/02/21 11:28:03;;;;;;;16.98;11.85;;;15.30;99.90;;;;;;4973958;28;20616;-70
2023/02/21 11:30:32;;;;;;;11.98;10.73;;;15.10;99.90;;;;;;4970976;28;20739;-70
2023/02/21 11:33:01;;;;;;;14.98;12.57;;;15.00;99.90;;;;;;4968061;28;20505;-70
2023/02/21 11:35:31;;;;;;;20.30;13.15;;;14.90;99.90;;;;;;4967408;28;20229;-70
2023/02/21 11:38:00;;;;;;;14.85;12.15;;;14.70;99.90;;;;;;4967482;28;20217;-71
2023/02/21 11:40:34;;;;;;;14.20;12.73;;;14.60;99.90;;;;;;4970303;28;20198;-70
2023/02/21 11:43:30;;;;;;;14.57;12.00;;;14.50;99.90;;;;;;4975002;28;20201;-70
2023/02/21 11:46:11;;;;;;;13.30;11.90;;;14.30;99.90;;;;;;4922416;28;20286;-70
2023/02/21 11:48:44;;;;;;;15.23;11.90;;;14.50;99.90;;;;;;4967267;28;20702;-70
2023/02/21 11:51:26;;;;;;;14.43;10.98;;;14.40;99.90;;;;;;4975602;28;20426;-70
2023/02/21 11:53:54;;;;;;;10.23;9.18;;;14.60;99.90;;;;;;4965707;28;20324;-70
2023/02/21 11:56:34;;;;;;;12.55;9.80;;;14.70;99.90;;;;;;4969686;28;20284;-70
2023/02/21 11:59:16;;;;;;;10.45;9.23;;;14.50;99.90;;;;;;4971292;28;20300;-70
2023/02/21 12:01:53;;;;;;;12.32;8.85;;;14.60;99.90;;;;;;4964423;28;20213;-70
2023/02/21 12:04:39;;;;;;;9.50;8.35;;;14.60;99.90;;;;;;4967481;28;20220;-70
2023/02/21 12:07:16;;;;;;;9.82;8.43;;;14.80;99.90;;;;;;4970248;28;20866;-70
2023/02/21 12:09:49;;;;;;;9.35;8.38;;;15.10;99.90;;;;;;4968818;28;20252;-70
2023/02/21 12:12:33;;;;;;;9.98;8.93;;;15.20;99.90;;;;;;4981834;28;20738;-70
2023/02/21 12:15:13;;;;;;;9.60;8.07;;;15.50;99.90;;;;;;4969986;28;20718;-70
2023/02/21 12:18:00;;;;;;;8.80;7.90;;;15.70;99.90;;;;;;4966904;28;20297;-70
2023/02/21 12:20:49;;;;;;;11.85;8.77;;;16.10;99.90;;;;;;4967246;28;20316;-65
2023/02/21 12:23:23;;;;;;;10.23;8.65;;;16.40;99.90;;;;;;4969899;28;20728;-65
2023/02/21 12:26:02;;;;;;;13.35;9.85;;;16.50;99.90;;;;;;4968653;28;20253;-66
2023/02/21 12:28:40;;;;;;;12.27;10.45;;;16.50;99.90;;;;;;4960987;28;20309;-65
2023/02/21 12:31:21;;;;;;;11.77;9.98;;;16.30;99.90;;;;;;4964654;28;20271;-69
2023/02/21 12:33:57;;;;;;;12.15;9.45;;;16.20;99.90;;;;;;4996559;23;20303;-71
2023/02/21 12:36:44;;;;;;;9.52;8.50;;;15.80;99.90;;;;;;4979239;28;20508;-71
2023/02/21 12:39:29;;;;;;;12.88;10.43;;;15.40;99.90;;;;;;4973117;28;20225;-70
2023/02/21 12:42:12;;;;;;;12.30;10.57;;;15.40;99.90;;;;;;4969524;28;20230;-68
2023/02/21 12:44:50;;;;;;;11.48;9.55;;;15.30;99.90;;;;;;4979607;28;20324;-70
2023/02/21 12:47:22;;;;;;;15.18;11.38;;;15.40;99.90;;;;;;4991877;28;20323;-71
2023/02/21 12:49:54;;;;;;;12.38;10.32;;;15.40;99.90;;;;;;4991489;28;20697;-70
2023/02/21 12:52:26;;;;;;;12.60;11.40;;;15.50;99.90;;;;;;4989534;28;20643;-70
2023/02/21 12:54:58;;;;;;;11.73;10.50;;;15.30;99.90;;;;;;4993325;28;20302;-69
2023/02/21 12:57:30;;;;;;;13.30;11.45;;;15.40;99.90;;;;;;4986974;28;20288;-70
2023/02/21 13:00:06;;;;;;;16.02;11.27;;;15.40;99.90;;;;;;4970839;28;20662;-69
2023/02/21 13:02:42;;;;;;;10.43;9.27;;;15.60;99.90;;;;;;4962050;28;20580;-69
2023/02/21 13:05:14;;;;;;;10.73;9.45;;;15.80;99.90;;;;;;4968649;28;20700;-69
2023/02/21 13:07:45;;;;;;;11.32;9.75;;;16.10;99.90;;;;;;4968942;28;20232;-70
2023/02/21 13:10:18;;;;;;;13.02;11.13;;;16.40;99.90;;;;;;4992617;28;20795;-70
2023/02/21 13:12:53;;;;;;;12.43;10.50;;;16.20;99.90;;;;;;4986642;28;20215;-70
2023/02/21 13:15:23;;;;;;;13.73;10.45;;;16.20;99.90;;;;;;4993952;28;20315;-70
2023/02/21 13:17:59;;;;;;;12.50;10.45;;;16.20;99.90;;;;;;4991794;28;20630;-69
2023/02/21 13:20:29;;;;;;;13.30;10.50;;;16.40;99.90;;;;;;4991071;28;20228;-70
2023/02/21 13:23:52;;;;;;;11.85;9.85;;;16.50;99.90;;;;;;4988689;28;20287;-69
2023/02/21 13:26:33;;;;;;;10.45;9.35;;;16.70;99.90;;;;;;4987334;28;20232;-70
2023/02/21 13:29:00;;;;;;;10.82;9.55;;;17.00;99.90;;;;;;4993286;28;20232;-71
2023/02/21 13:31:36;;;;;;;16.45;10.05;;;17.20;99.90;;;;;;4988710;28;20200;-70
2023/02/21 13:34:08;;;;;;;12.75;10.02;;;17.20;99.90;;;;;;4987377;28;20271;-69
2023/02/21 13:36:43;;;;;;;12.15;9.35;;;17.20;99.90;;;;;;4991898;28;20692;-69
2023/02/21 13:39:13;;;;;;;11.15;9.05;;;17.30;99.90;;;;;;4989445;28;20220;-70
2023/02/21 13:41:43;;;;;;;12.50;9.50;;;17.40;99.90;;;;;;4988733;28;20212;-70
2023/02/21 13:44:13;;;;;;;14.43;9.50;;;17.50;99.90;;;;;;4972447;28;20635;-70
2023/02/21 13:47:05;;;;;;;12.70;10.23;;;17.50;99.90;;;;;;4972799;28;20563;-69
2023/02/21 13:49:55;;;;;;;13.88;11.77;;;17.40;99.90;;;;;;4977549;28;20304;-67
2023/02/21 13:52:53;;;;;;;15.57;11.65;;;17.30;99.90;;;;;;4985007;28;20662;-69
2023/02/21 13:55:30;;;;;;;14.43;11.32;;;17.30;99.90;;;;;;4986589;28;20316;-69
2023/02/21 13:58:43;;;;;;;14.07;11.93;;;17.30;99.90;;;;;;4988721;28;20449;-70
2023/02/21 14:01:42;;;;;;;15.95;12.50;;;17.10;99.90;;;;;;4984992;28;20202;-70
2023/02/21 14:04:58;;;;;;;14.55;12.38;;;16.90;99.90;;;;;;4977295;28;20226;-69
2023/02/21 14:10:24;;;;;;;15.70;13.38;;;17.00;99.90;;;;;;5118955;27;20552;-69
2023/02/21 14:12:56;;;;;;;13.85;11.85;;;17.10;99.90;;;;;;5107530;28;20211;-68
2023/02/21 14:15:23;;;;;;;14.30;11.82;;;17.20;99.90;;;;;;5078954;28;20225;-69
2023/02/21 14:17:52;;;;;;;15.70;12.65;;;17.40;99.90;;;;;;5079276;28;20243;-69
2023/02/21 14:20:22;;;;;;;15.63;12.90;;;17.30;99.90;;;;;;5062149;28;20197;-69
2023/02/21 14:22:52;;;;;;;14.45;12.15;;;17.30;99.90;;;;;;5061785;28;20704;-68
2023/02/21 14:25:24;;;;;;;18.55;14.38;;;17.20;99.90;;;;;;5074266;28;20229;-68
2023/02/21 14:27:52;;;;;;;17.60;14.38;;;17.30;99.90;;;;;;5078457;28;20840;-68
2023/02/21 14:30:34;;;;;;;16.52;13.48;;;17.20;99.90;;;;;;5077148;28;20210;-69
2023/02/21 14:33:21;;;;;;;15.68;12.82;;;17.30;99.90;;;;;;5075665;28;20212;-68
2023/02/21 14:35:58;;;;;;;17.13;13.55;;;17.30;99.90;;;;;;5074347;28;20304;-68
2023/02/21 14:38:27;;;;;;;13.00;11.55;;;17.20;99.90;;;;;;5083567;28;20233;-69
2023/02/21 14:41:08;;;;;;;15.63;12.93;;;17.30;99.90;;;;;;5089170;28;20198;-69
2023/02/21 14:43:56;;;;;;;16.10;13.50;;;17.20;99.90;;;;;;5098857;28;20224;-69
2023/02/21 14:47:09;;;;;;;14.48;12.18;;;17.10;99.90;;;;;;5094333;28;20201;-68
2023/02/21 14:50:18;;;;;;;15.45;12.65;;;17.00;99.90;;;;;;5081962;28;20315;-69
2023/02/21 14:53:22;;;;;;;18.90;14.10;;;16.70;99.90;;;;;;5069606;28;20284;-69
2023/02/21 14:56:16;;;;;;;14.18;11.93;;;16.60;99.90;;;;;;5079642;28;20304;-68
2023/02/21 14:59:10;;;;;;;18.50;13.50;;;16.60;99.90;;;;;;5077089;28;20664;-68
2023/02/21 15:02:01;;;;;;;18.83;15.25;;;16.60;99.90;;;;;;5076950;28;20721;-68
2023/02/21 15:04:37;;;;;;;15.55;12.77;;;16.70;99.90;;;;;;5077824;28;20258;-69
2023/02/21 15:07:17;;;;;;;14.27;12.75;;;16.60;99.90;;;;;;5080412;28;20297;-68
2023/02/21 15:09:44;;;;;;;14.07;10.77;;;16.50;99.90;;;;;;5076907;28;20228;-67
2023/02/21 15:12:16;;;;;;;14.02;10.50;;;16.40;99.90;;;;;;5078295;28;20645;-68
2023/02/21 15:14:49;;;;;;;11.95;10.30;;;16.20;99.90;;;;;;5080798;28;20260;-69
2023/02/21 15:17:25;;;;;;;12.13;10.18;;;15.90;99.90;;;;;;5079946;28;20263;-68